sensor_id;sensor_type;location;lat;lon;timestamp;temperature;humidity
21481;DHT22;10902;48.158;8.634;2023-07-30T00:02:44;16.20;99.90
21481;DHT22;10902;48.158;8.634;2023-07-30T00:05:30;16.20;99.90
21481;DHT22;10902;48.158;8.634;2023-07-30T00:08:15;16.20;99.90
21481;DHT22;10902;48.158;8.634;2023-07-30T00:11:01;16.30;99.90
21481;DHT22;10902;48.158;8.634;2023-07-30T00:13:47;16.30;99.90
21481;DHT22;10902;48.158;8.634;2023-07-30T00:16:32;16.40;99.90
21481;DHT22;10902;48.158;8.634;2023-07-30T00:19:18;16.50;99.90
21481;DHT22;10902;48.158;8.634;2023-07-30T00:22:04;16.70;99.90
21481;DHT22;10902;48.158;8.634;2023-07-30T00:24:49;16.80;99.90
21481;DHT22;10902;48.158;8.634;2023-07-30T00:27:35;16.90;99.90
21481;DHT22;10902;48.158;8.634;2023-07-30T00:30:20;16.90;99.90
21481;DHT22;10902;48.158;8.634;2023-07-30T00:33:06;16.90;99.90
21481;DHT22;10902;48.158;8.634;2023-07-30T00:35:52;16.80;99.90
21481;DHT22;10902;48.158;8.634;2023-07-30T00:38:39;16.70;99.90
21481;DHT22;10902;48.158;8.634;2023-07-30T00:41:24;16.60;99.90
21481;DHT22;10902;48.158;8.634;2023-07-30T00:44:15;16.50;99.90
21481;DHT22;10902;48.158;8.634;2023-07-30T00:47:01;16.50;99.90
21481;DHT22;10902;48.158;8.634;2023-07-30T00:49:47;16.40;99.90
21481;DHT22;10902;48.158;8.634;2023-07-30T00:52:34;16.30;99.90
21481;DHT22;10902;48.158;8.634;2023-07-30T00:55:20;16.20;99.90
21481;DHT22;10902;48.158;8.634;2023-07-30T00:58:06;16.10;99.90
21481;DHT22;10902;48.158;8.634;2023-07-30T01:00:53;16.00;99.90
21481;DHT22;10902;48.158;8.634;2023-07-30T01:03:39;16.00;99.90
21481;DHT22;10902;48.158;8.634;2023-07-30T01:06:25;16.00;99.90
21481;DHT22;10902;48.158;8.634;2023-07-30T01:09:11;15.90;99.90
21481;DHT22;10902;48.158;8.634;2023-07-30T01:11:56;15.90;99.90
21481;DHT22;10902;48.158;8.634;2023-07-30T01:14:44;15.90;99.90
21481;DHT22;10902;48.158;8.634;2023-07-30T01:17:31;15.80;99.90
21481;DHT22;10902;48.158;8.634;2023-07-30T01:20:16;15.80;99.90
21481;DHT22;10902;48.158;8.634;2023-07-30T01:23:02;15.70;99.90
21481;DHT22;10902;48.158;8.634;2023-07-30T01:26:02;15.70;99.90
21481;DHT22;10902;48.158;8.634;2023-07-30T01:28:51;15.70;99.90
21481;DHT22;10902;48.158;8.634;2023-07-30T01:31:40;15.60;99.90
21481;DHT22;10902;48.158;8.634;2023-07-30T01:34:27;15.60;99.90
21481;DHT22;10902;48.158;8.634;2023-07-30T01:37:15;15.60;99.90
21481;DHT22;10902;48.158;8.634;2023-07-30T01:40:02;15.50;99.90
21481;DHT22;10902;48.158;8.634;2023-07-30T01:42:51;15.50;99.90
21481;DHT22;10902;48.158;8.634;2023-07-30T01:45:36;15.60;99.90
21481;DHT22;10902;48.158;8.634;2023-07-30T01:48:22;15.60;99.90
21481;DHT22;10902;48.158;8.634;2023-07-30T01:51:08;15.50;99.90
21481;DHT22;10902;48.158;8.634;2023-07-30T01:53:53;15.60;99.90
21481;DHT22;10902;48.158;8.634;2023-07-30T01:56:39;15.50;99.90
21481;DHT22;10902;48.158;8.634;2023-07-30T01:59:25;15.50;99.90
21481;DHT22;10902;48.158;8.634;2023-07-30T02:02:10;15.40;99.90
21481;DHT22;10902;48.158;8.634;2023-07-30T02:04:56;15.40;99.90
21481;DHT22;10902;48.158;8.634;2023-07-30T02:07:41;15.40;99.90
21481;DHT22;10902;48.158;8.634;2023-07-30T02:10:27;15.30;99.90
21481;DHT22;10902;48.158;8.634;2023-07-30T02:13:13;15.30;99.90
21481;DHT22;10902;48.158;8.634;2023-07-30T02:15:59;15.30;99.90
21481;DHT22;10902;48.158;8.634;2023-07-30T02:18:44;15.40;99.90
21481;DHT22;10902;48.158;8.634;2023-07-30T02:21:30;15.30;99.90
21481;DHT22;10902;48.158;8.634;2023-07-30T02:24:17;15.20;99.90
21481;DHT22;10902;48.158;8.634;2023-07-30T02:27:03;15.20;99.90
21481;DHT22;10902;48.158;8.634;2023-07-30T02:29:49;15.10;99.90
21481;DHT22;10902;48.158;8.634;2023-07-30T02:32:34;15.10;99.90
21481;DHT22;10902;48.158;8.634;2023-07-30T02:35:20;15.00;99.90
21481;DHT22;10902;48.158;8.634;2023-07-30T02:38:06;15.00;99.90
21481;DHT22;10902;48.158;8.634;2023-07-30T02:40:51;15.00;99.90
21481;DHT22;10902;48.158;8.634;2023-07-30T02:43:37;14.90;99.90
21481;DHT22;10902;48.158;8.634;2023-07-30T02:46:22;15.00;99.90
21481;DHT22;10902;48.158;8.634;2023-07-30T02:49:08;15.00;99.90
21481;DHT22;10902;48.158;8.634;2023-07-30T02:51:56;15.00;99.90
21481;DHT22;10902;48.158;8.634;2023-07-30T02:54:42;14.90;99.90
21481;DHT22;10902;48.158;8.634;2023-07-30T02:57:27;14.80;99.90
21481;DHT22;10902;48.158;8.634;2023-07-30T03:00:13;14.80;99.90
21481;DHT22;10902;48.158;8.634;2023-07-30T03:02:59;14.90;99.90
21481;DHT22;10902;48.158;8.634;2023-07-30T03:05:44;14.90;99.90
21481;DHT22;10902;48.158;8.634;2023-07-30T03:08:30;14.80;99.90
21481;DHT22;10902;48.158;8.634;2023-07-30T03:11:15;14.70;99.90
21481;DHT22;10902;48.158;8.634;2023-07-30T03:14:01;14.70;99.90
21481;DHT22;10902;48.158;8.634;2023-07-30T03:16:47;14.70;99.90
21481;DHT22;10902;48.158;8.634;2023-07-30T03:19:33;14.60;99.90
21481;DHT22;10902;48.158;8.634;2023-07-30T03:22:19;14.60;99.90
21481;DHT22;10902;48.158;8.634;2023-07-30T03:25:04;14.60;99.90
21481;DHT22;10902;48.158;8.634;2023-07-30T03:27:50;14.60;99.90
21481;DHT22;10902;48.158;8.634;2023-07-30T03:30:36;14.60;99.90
21481;DHT22;10902;48.158;8.634;2023-07-30T03:33:22;14.60;99.90
21481;DHT22;10902;48.158;8.634;2023-07-30T03:36:07;14.50;99.90
21481;DHT22;10902;48.158;8.634;2023-07-30T03:38:53;14.50;99.90
21481;DHT22;10902;48.158;8.634;2023-07-30T03:41:38;14.40;99.90
21481;DHT22;10902;48.158;8.634;2023-07-30T03:44:24;14.30;99.90
21481;DHT22;10902;48.158;8.634;2023-07-30T03:47:09;14.30;99.90
21481;DHT22;10902;48.158;8.634;2023-07-30T03:49:55;14.30;99.90
21481;DHT22;10902;48.158;8.634;2023-07-30T03:52:41;14.30;99.90
21481;DHT22;10902;48.158;8.634;2023-07-30T03:55:26;14.40;99.90
21481;DHT22;10902;48.158;8.634;2023-07-30T03:58:12;14.30;99.90
21481;DHT22;10902;48.158;8.634;2023-07-30T04:00:57;14.30;99.90
21481;DHT22;10902;48.158;8.634;2023-07-30T04:03:43;14.40;99.90
21481;DHT22;10902;48.158;8.634;2023-07-30T04:06:29;14.50;99.90
21481;DHT22;10902;48.158;8.634;2023-07-30T04:09:14;14.60;99.90
21481;DHT22;10902;48.158;8.634;2023-07-30T04:12:00;14.60;99.90
21481;DHT22;10902;48.158;8.634;2023-07-30T04:14:46;14.40;99.90
21481;DHT22;10902;48.158;8.634;2023-07-30T04:17:31;14.40;99.90
21481;DHT22;10902;48.158;8.634;2023-07-30T04:20:17;14.20;99.90
21481;DHT22;10902;48.158;8.634;2023-07-30T04:23:03;14.20;99.90
21481;DHT22;10902;48.158;8.634;2023-07-30T04:25:49;14.20;99.90
21481;DHT22;10902;48.158;8.634;2023-07-30T04:28:35;14.20;99.90
21481;DHT22;10902;48.158;8.634;2023-07-30T04:31:21;14.20;99.90
21481;DHT22;10902;48.158;8.634;2023-07-30T04:34:06;14.30;99.90
21481;DHT22;10902;48.158;8.634;2023-07-30T04:36:52;14.30;99.90
21481;DHT22;10902;48.158;8.634;2023-07-30T04:39:37;14.30;99.90
21481;DHT22;10902;48.158;8.634;2023-07-30T04:42:23;14.30;99.90
21481;DHT22;10902;48.158;8.634;2023-07-30T04:45:09;14.30;99.90
21481;DHT22;10902;48.158;8.634;2023-07-30T04:47:55;14.40;99.90
21481;DHT22;10902;48.158;8.634;2023-07-30T04:50:41;14.50;99.90
21481;DHT22;10902;48.158;8.634;2023-07-30T04:53:27;14.50;99.90
21481;DHT22;10902;48.158;8.634;2023-07-30T04:56:12;14.60;99.90
21481;DHT22;10902;48.158;8.634;2023-07-30T04:58:58;14.60;99.90
21481;DHT22;10902;48.158;8.634;2023-07-30T05:01:44;14.70;99.90
21481;DHT22;10902;48.158;8.634;2023-07-30T05:04:29;14.80;99.90
21481;DHT22;10902;48.158;8.634;2023-07-30T05:07:15;14.90;99.90
21481;DHT22;10902;48.158;8.634;2023-07-30T05:10:01;14.90;99.90
21481;DHT22;10902;48.158;8.634;2023-07-30T05:12:46;14.90;99.90
21481;DHT22;10902;48.158;8.634;2023-07-30T05:15:32;15.00;99.90
21481;DHT22;10902;48.158;8.634;2023-07-30T05:18:17;15.10;99.90
21481;DHT22;10902;48.158;8.634;2023-07-30T05:21:03;15.20;99.90
21481;DHT22;10902;48.158;8.634;2023-07-30T05:23:49;15.30;99.90
21481;DHT22;10902;48.158;8.634;2023-07-30T05:26:34;15.40;99.90
21481;DHT22;10902;48.158;8.634;2023-07-30T05:29:20;15.50;99.90
21481;DHT22;10902;48.158;8.634;2023-07-30T05:32:06;15.50;99.90
21481;DHT22;10902;48.158;8.634;2023-07-30T05:34:52;15.70;99.90
21481;DHT22;10902;48.158;8.634;2023-07-30T05:37:37;15.90;99.90
21481;DHT22;10902;48.158;8.634;2023-07-30T05:40:23;16.20;99.90
21481;DHT22;10902;48.158;8.634;2023-07-30T05:43:09;16.40;99.90
21481;DHT22;10902;48.158;8.634;2023-07-30T05:45:54;16.60;99.90
21481;DHT22;10902;48.158;8.634;2023-07-30T05:48:40;16.80;99.90
21481;DHT22;10902;48.158;8.634;2023-07-30T05:51:25;17.00;99.90
21481;DHT22;10902;48.158;8.634;2023-07-30T05:54:12;17.20;99.90
21481;DHT22;10902;48.158;8.634;2023-07-30T05:56:58;17.30;99.90
21481;DHT22;10902;48.158;8.634;2023-07-30T05:59:43;17.40;99.90
21481;DHT22;10902;48.158;8.634;2023-07-30T06:02:29;17.50;99.90
21481;DHT22;10902;48.158;8.634;2023-07-30T06:05:14;17.50;99.90
21481;DHT22;10902;48.158;8.634;2023-07-30T06:08:00;17.50;99.90
21481;DHT22;10902;48.158;8.634;2023-07-30T06:10:48;17.50;99.90
21481;DHT22;10902;48.158;8.634;2023-07-30T06:13:33;17.50;99.90
21481;DHT22;10902;48.158;8.634;2023-07-30T06:16:19;17.60;99.90
21481;DHT22;10902;48.158;8.634;2023-07-30T06:19:07;17.60;99.90
21481;DHT22;10902;48.158;8.634;2023-07-30T06:21:53;17.70;99.90
21481;DHT22;10902;48.158;8.634;2023-07-30T06:24:38;18.00;99.90
21481;DHT22;10902;48.158;8.634;2023-07-30T06:27:24;18.30;99.90
21481;DHT22;10902;48.158;8.634;2023-07-30T06:30:10;18.70;99.90
21481;DHT22;10902;48.158;8.634;2023-07-30T06:32:56;18.90;99.90
21481;DHT22;10902;48.158;8.634;2023-07-30T06:35:42;19.10;99.90
21481;DHT22;10902;48.158;8.634;2023-07-30T06:38:27;19.20;99.90
21481;DHT22;10902;48.158;8.634;2023-07-30T06:41:14;19.10;99.90
21481;DHT22;10902;48.158;8.634;2023-07-30T06:44:00;19.00;99.90
21481;DHT22;10902;48.158;8.634;2023-07-30T06:46:45;19.10;99.90
21481;DHT22;10902;48.158;8.634;2023-07-30T06:49:31;19.00;99.90
21481;DHT22;10902;48.158;8.634;2023-07-30T06:52:19;19.00;99.90
21481;DHT22;10902;48.158;8.634;2023-07-30T06:55:05;19.10;99.90
21481;DHT22;10902;48.158;8.634;2023-07-30T06:57:51;19.30;99.90
21481;DHT22;10902;48.158;8.634;2023-07-30T07:00:37;19.50;99.90
21481;DHT22;10902;48.158;8.634;2023-07-30T07:03:22;19.50;99.90
21481;DHT22;10902;48.158;8.634;2023-07-30T07:06:08;19.40;99.90
21481;DHT22;10902;48.158;8.634;2023-07-30T07:08:54;19.40;99.90
21481;DHT22;10902;48.158;8.634;2023-07-30T07:11:39;19.30;99.90
21481;DHT22;10902;48.158;8.634;2023-07-30T07:14:25;19.30;99.90
21481;DHT22;10902;48.158;8.634;2023-07-30T07:17:10;19.20;99.90
21481;DHT22;10902;48.158;8.634;2023-07-30T07:19:57;19.50;99.90
21481;DHT22;10902;48.158;8.634;2023-07-30T07:22:43;19.50;99.90
21481;DHT22;10902;48.158;8.634;2023-07-30T07:25:28;19.70;99.90
21481;DHT22;10902;48.158;8.634;2023-07-30T07:28:14;19.90;99.90
21481;DHT22;10902;48.158;8.634;2023-07-30T07:31:00;20.10;99.90
21481;DHT22;10902;48.158;8.634;2023-07-30T07:33:45;20.10;99.90
21481;DHT22;10902;48.158;8.634;2023-07-30T07:36:31;19.70;99.90
21481;DHT22;10902;48.158;8.634;2023-07-30T07:39:17;19.80;99.90
21481;DHT22;10902;48.158;8.634;2023-07-30T07:42:03;19.90;99.90
21481;DHT22;10902;48.158;8.634;2023-07-30T07:44:49;20.40;99.90
21481;DHT22;10902;48.158;8.634;2023-07-30T07:47:34;20.70;99.90
21481;DHT22;10902;48.158;8.634;2023-07-30T07:50:20;20.50;99.90
21481;DHT22;10902;48.158;8.634;2023-07-30T07:53:06;20.20;99.90
21481;DHT22;10902;48.158;8.634;2023-07-30T07:55:51;20.00;99.90
21481;DHT22;10902;48.158;8.634;2023-07-30T07:58:37;20.10;99.90
21481;DHT22;10902;48.158;8.634;2023-07-30T08:01:22;20.40;99.90
21481;DHT22;10902;48.158;8.634;2023-07-30T08:04:08;20.30;99.90
21481;DHT22;10902;48.158;8.634;2023-07-30T08:06:54;20.20;99.90
21481;DHT22;10902;48.158;8.634;2023-07-30T08:09:39;20.40;99.90
21481;DHT22;10902;48.158;8.634;2023-07-30T08:12:25;20.60;99.90
21481;DHT22;10902;48.158;8.634;2023-07-30T08:15:10;21.10;99.90
21481;DHT22;10902;48.158;8.634;2023-07-30T08:17:56;21.10;99.90
21481;DHT22;10902;48.158;8.634;2023-07-30T08:20:42;20.90;99.90
21481;DHT22;10902;48.158;8.634;2023-07-30T08:23:27;21.00;99.90
21481;DHT22;10902;48.158;8.634;2023-07-30T08:26:13;21.10;99.90
21481;DHT22;10902;48.158;8.634;2023-07-30T08:28:59;20.90;99.90
21481;DHT22;10902;48.158;8.634;2023-07-30T08:31:44;20.90;99.90
21481;DHT22;10902;48.158;8.634;2023-07-30T08:34:30;20.70;99.90
21481;DHT22;10902;48.158;8.634;2023-07-30T08:37:15;20.70;99.90
21481;DHT22;10902;48.158;8.634;2023-07-30T08:40:01;20.60;99.90
21481;DHT22;10902;48.158;8.634;2023-07-30T08:42:47;20.50;99.90
21481;DHT22;10902;48.158;8.634;2023-07-30T08:45:33;20.90;99.90
21481;DHT22;10902;48.158;8.634;2023-07-30T08:48:18;20.70;99.90
21481;DHT22;10902;48.158;8.634;2023-07-30T08:51:04;20.80;99.90
21481;DHT22;10902;48.158;8.634;2023-07-30T08:53:51;20.50;99.90
21481;DHT22;10902;48.158;8.634;2023-07-30T08:56:37;20.40;99.90
21481;DHT22;10902;48.158;8.634;2023-07-30T08:59:24;20.80;99.90
21481;DHT22;10902;48.158;8.634;2023-07-30T09:02:16;21.50;99.90
21481;DHT22;10902;48.158;8.634;2023-07-30T09:05:03;21.90;99.90
21481;DHT22;10902;48.158;8.634;2023-07-30T09:07:49;21.80;99.90
21481;DHT22;10902;48.158;8.634;2023-07-30T09:10:35;21.60;99.90
21481;DHT22;10902;48.158;8.634;2023-07-30T09:13:21;21.50;99.90
21481;DHT22;10902;48.158;8.634;2023-07-30T09:16:13;21.60;99.90
21481;DHT22;10902;48.158;8.634;2023-07-30T09:18:59;21.50;99.90
21481;DHT22;10902;48.158;8.634;2023-07-30T09:21:44;21.70;99.90
21481;DHT22;10902;48.158;8.634;2023-07-30T09:24:30;21.80;99.90
21481;DHT22;10902;48.158;8.634;2023-07-30T09:27:20;21.80;99.90
21481;DHT22;10902;48.158;8.634;2023-07-30T09:30:08;21.60;99.90
21481;DHT22;10902;48.158;8.634;2023-07-30T09:32:57;21.80;99.90
21481;DHT22;10902;48.158;8.634;2023-07-30T09:35:44;22.00;99.90
21481;DHT22;10902;48.158;8.634;2023-07-30T09:38:30;22.00;99.90
21481;DHT22;10902;48.158;8.634;2023-07-30T09:41:18;20.40;99.90
21481;DHT22;10902;48.158;8.634;2023-07-30T09:44:03;20.60;99.90
21481;DHT22;10902;48.158;8.634;2023-07-30T09:46:49;20.30;99.90
21481;DHT22;10902;48.158;8.634;2023-07-30T09:49:36;20.40;99.90
21481;DHT22;10902;48.158;8.634;2023-07-30T09:52:22;20.10;99.90
21481;DHT22;10902;48.158;8.634;2023-07-30T09:55:08;20.60;99.90
21481;DHT22;10902;48.158;8.634;2023-07-30T09:57:54;19.70;99.90
21481;DHT22;10902;48.158;8.634;2023-07-30T10:00:39;19.20;99.90
21481;DHT22;10902;48.158;8.634;2023-07-30T10:03:26;18.90;99.90
21481;DHT22;10902;48.158;8.634;2023-07-30T10:06:13;18.70;99.90
21481;DHT22;10902;48.158;8.634;2023-07-30T10:08:59;18.10;99.90
21481;DHT22;10902;48.158;8.634;2023-07-30T10:11:45;18.00;99.90
21481;DHT22;10902;48.158;8.634;2023-07-30T10:14:31;17.90;99.90
21481;DHT22;10902;48.158;8.634;2023-07-30T10:17:17;18.20;99.90
21481;DHT22;10902;48.158;8.634;2023-07-30T10:20:45;18.90;99.90
21481;DHT22;10902;48.158;8.634;2023-07-30T10:23:47;19.50;99.90
21481;DHT22;10902;48.158;8.634;2023-07-30T10:26:35;19.60;99.90
21481;DHT22;10902;48.158;8.634;2023-07-30T10:29:22;19.90;99.90
21481;DHT22;10902;48.158;8.634;2023-07-30T10:32:08;20.50;99.90
21481;DHT22;10902;48.158;8.634;2023-07-30T10:34:55;20.00;99.90
21481;DHT22;10902;48.158;8.634;2023-07-30T10:37:45;19.70;99.90
21481;DHT22;10902;48.158;8.634;2023-07-30T10:40:32;19.70;99.90
21481;DHT22;10902;48.158;8.634;2023-07-30T10:43:18;20.40;99.90
21481;DHT22;10902;48.158;8.634;2023-07-30T10:46:03;21.30;99.90
21481;DHT22;10902;48.158;8.634;2023-07-30T10:48:49;21.80;99.90
21481;DHT22;10902;48.158;8.634;2023-07-30T10:51:35;22.00;99.90
21481;DHT22;10902;48.158;8.634;2023-07-30T10:54:21;21.70;99.90
21481;DHT22;10902;48.158;8.634;2023-07-30T10:57:07;22.00;99.90
21481;DHT22;10902;48.158;8.634;2023-07-30T10:59:53;22.40;99.90
21481;DHT22;10902;48.158;8.634;2023-07-30T11:02:40;22.60;99.90
21481;DHT22;10902;48.158;8.634;2023-07-30T11:05:25;22.20;99.90
21481;DHT22;10902;48.158;8.634;2023-07-30T11:08:11;21.30;99.90
21481;DHT22;10902;48.158;8.634;2023-07-30T11:10:57;21.30;99.90
21481;DHT22;10902;48.158;8.634;2023-07-30T11:13:44;22.10;99.90
21481;DHT22;10902;48.158;8.634;2023-07-30T11:16:31;21.30;99.90
21481;DHT22;10902;48.158;8.634;2023-07-30T11:19:18;21.00;99.90
21481;DHT22;10902;48.158;8.634;2023-07-30T11:22:03;20.70;99.90
21481;DHT22;10902;48.158;8.634;2023-07-30T11:24:52;20.80;99.90
21481;DHT22;10902;48.158;8.634;2023-07-30T11:27:45;21.40;99.90
21481;DHT22;10902;48.158;8.634;2023-07-30T11:30:32;21.90;99.90
21481;DHT22;10902;48.158;8.634;2023-07-30T11:33:17;21.60;99.90
21481;DHT22;10902;48.158;8.634;2023-07-30T11:36:04;22.30;99.90
21481;DHT22;10902;48.158;8.634;2023-07-30T11:38:51;22.40;99.90
21481;DHT22;10902;48.158;8.634;2023-07-30T11:41:38;22.20;99.90
21481;DHT22;10902;48.158;8.634;2023-07-30T11:44:36;22.60;99.90
21481;DHT22;10902;48.158;8.634;2023-07-30T11:47:25;22.90;99.90
21481;DHT22;10902;48.158;8.634;2023-07-30T11:50:10;23.10;99.90
21481;DHT22;10902;48.158;8.634;2023-07-30T11:52:56;22.60;99.90
21481;DHT22;10902;48.158;8.634;2023-07-30T11:55:43;23.30;99.90
21481;DHT22;10902;48.158;8.634;2023-07-30T11:58:29;23.50;99.90
21481;DHT22;10902;48.158;8.634;2023-07-30T12:01:16;23.20;99.90
21481;DHT22;10902;48.158;8.634;2023-07-30T12:04:06;21.70;99.90
21481;DHT22;10902;48.158;8.634;2023-07-30T12:06:52;21.20;99.90
21481;DHT22;10902;48.158;8.634;2023-07-30T12:09:40;22.50;99.90
21481;DHT22;10902;48.158;8.634;2023-07-30T12:12:26;22.40;99.90
21481;DHT22;10902;48.158;8.634;2023-07-30T12:15:13;22.30;99.90
21481;DHT22;10902;48.158;8.634;2023-07-30T12:17:58;22.80;99.90
21481;DHT22;10902;48.158;8.634;2023-07-30T12:20:44;22.00;99.90
21481;DHT22;10902;48.158;8.634;2023-07-30T12:23:30;23.00;99.90
21481;DHT22;10902;48.158;8.634;2023-07-30T12:26:16;22.20;99.90
21481;DHT22;10902;48.158;8.634;2023-07-30T12:29:02;22.30;99.90
21481;DHT22;10902;48.158;8.634;2023-07-30T12:31:47;22.90;99.90
21481;DHT22;10902;48.158;8.634;2023-07-30T12:34:33;22.00;99.90
21481;DHT22;10902;48.158;8.634;2023-07-30T12:37:18;21.40;99.90
21481;DHT22;10902;48.158;8.634;2023-07-30T12:40:04;20.90;99.90
21481;DHT22;10902;48.158;8.634;2023-07-30T12:42:50;20.70;99.90
21481;DHT22;10902;48.158;8.634;2023-07-30T12:45:36;20.70;99.90
21481;DHT22;10902;48.158;8.634;2023-07-30T12:48:21;21.30;99.90
21481;DHT22;10902;48.158;8.634;2023-07-30T12:51:07;20.60;99.90
21481;DHT22;10902;48.158;8.634;2023-07-30T12:53:53;20.20;99.90
21481;DHT22;10902;48.158;8.634;2023-07-30T12:56:38;21.10;99.90
21481;DHT22;10902;48.158;8.634;2023-07-30T12:59:24;21.40;99.90
21481;DHT22;10902;48.158;8.634;2023-07-30T13:02:09;22.20;99.90
21481;DHT22;10902;48.158;8.634;2023-07-30T13:04:55;22.40;99.90
21481;DHT22;10902;48.158;8.634;2023-07-30T13:07:40;21.40;99.90
21481;DHT22;10902;48.158;8.634;2023-07-30T13:10:26;20.30;99.90
21481;DHT22;10902;48.158;8.634;2023-07-30T13:13:12;20.80;99.90
21481;DHT22;10902;48.158;8.634;2023-07-30T13:15:58;22.20;99.90
21481;DHT22;10902;48.158;8.634;2023-07-30T13:18:46;23.20;99.90
21481;DHT22;10902;48.158;8.634;2023-07-30T13:21:32;22.60;99.90
21481;DHT22;10902;48.158;8.634;2023-07-30T13:24:17;21.20;99.90
21481;DHT22;10902;48.158;8.634;2023-07-30T13:27:03;20.70;99.90
21481;DHT22;10902;48.158;8.634;2023-07-30T13:29:49;20.60;99.90
21481;DHT22;10902;48.158;8.634;2023-07-30T13:32:34;21.00;99.90
21481;DHT22;10902;48.158;8.634;2023-07-30T13:35:20;20.00;99.90
21481;DHT22;10902;48.158;8.634;2023-07-30T13:38:05;20.50;99.90
21481;DHT22;10902;48.158;8.634;2023-07-30T13:40:51;21.20;99.90
21481;DHT22;10902;48.158;8.634;2023-07-30T13:43:37;22.30;99.90
21481;DHT22;10902;48.158;8.634;2023-07-30T13:46:22;21.80;99.90
21481;DHT22;10902;48.158;8.634;2023-07-30T13:49:08;20.70;99.90
21481;DHT22;10902;48.158;8.634;2023-07-30T13:51:54;20.30;99.90
21481;DHT22;10902;48.158;8.634;2023-07-30T13:54:39;20.00;99.90
21481;DHT22;10902;48.158;8.634;2023-07-30T13:57:27;20.30;99.90
21481;DHT22;10902;48.158;8.634;2023-07-30T14:00:12;21.20;99.90
21481;DHT22;10902;48.158;8.634;2023-07-30T14:02:58;22.50;99.90
21481;DHT22;10902;48.158;8.634;2023-07-30T14:05:44;21.40;99.90
21481;DHT22;10902;48.158;8.634;2023-07-30T14:08:29;20.90;99.90
21481;DHT22;10902;48.158;8.634;2023-07-30T14:11:15;21.20;99.90
21481;DHT22;10902;48.158;8.634;2023-07-30T14:14:00;21.40;99.90
21481;DHT22;10902;48.158;8.634;2023-07-30T14:16:46;20.70;99.90
21481;DHT22;10902;48.158;8.634;2023-07-30T14:19:32;20.10;99.90
21481;DHT22;10902;48.158;8.634;2023-07-30T14:22:18;19.60;99.90
21481;DHT22;10902;48.158;8.634;2023-07-30T14:25:04;19.90;99.90
21481;DHT22;10902;48.158;8.634;2023-07-30T14:27:50;20.30;99.90
21481;DHT22;10902;48.158;8.634;2023-07-30T14:30:35;19.80;99.90
21481;DHT22;10902;48.158;8.634;2023-07-30T14:33:22;19.70;99.90
21481;DHT22;10902;48.158;8.634;2023-07-30T14:36:08;19.20;99.90
21481;DHT22;10902;48.158;8.634;2023-07-30T14:38:56;18.90;99.90
21481;DHT22;10902;48.158;8.634;2023-07-30T14:41:42;19.40;99.90
21481;DHT22;10902;48.158;8.634;2023-07-30T14:44:27;20.90;99.90
21481;DHT22;10902;48.158;8.634;2023-07-30T14:47:13;21.80;99.90
21481;DHT22;10902;48.158;8.634;2023-07-30T14:49:59;21.90;99.90
21481;DHT22;10902;48.158;8.634;2023-07-30T14:52:44;23.20;99.90
21481;DHT22;10902;48.158;8.634;2023-07-30T14:55:30;21.10;99.90
21481;DHT22;10902;48.158;8.634;2023-07-30T14:58:16;20.60;99.90
21481;DHT22;10902;48.158;8.634;2023-07-30T15:01:02;19.80;99.90
21481;DHT22;10902;48.158;8.634;2023-07-30T15:03:47;20.20;99.90
21481;DHT22;10902;48.158;8.634;2023-07-30T15:06:33;20.40;99.90
21481;DHT22;10902;48.158;8.634;2023-07-30T15:09:19;21.20;99.90
21481;DHT22;10902;48.158;8.634;2023-07-30T15:12:05;21.30;99.90
21481;DHT22;10902;48.158;8.634;2023-07-30T15:14:54;22.80;99.90
21481;DHT22;10902;48.158;8.634;2023-07-30T15:17:40;22.90;99.90
21481;DHT22;10902;48.158;8.634;2023-07-30T15:20:25;21.80;99.90
21481;DHT22;10902;48.158;8.634;2023-07-30T15:23:13;22.30;99.90
21481;DHT22;10902;48.158;8.634;2023-07-30T15:25:58;21.90;99.90
21481;DHT22;10902;48.158;8.634;2023-07-30T15:28:44;21.10;99.90
21481;DHT22;10902;48.158;8.634;2023-07-30T15:31:30;20.20;99.90
21481;DHT22;10902;48.158;8.634;2023-07-30T15:34:16;20.30;99.90
21481;DHT22;10902;48.158;8.634;2023-07-30T15:37:02;20.70;99.90
21481;DHT22;10902;48.158;8.634;2023-07-30T15:39:47;20.10;99.90
21481;DHT22;10902;48.158;8.634;2023-07-30T15:42:33;19.90;99.90
21481;DHT22;10902;48.158;8.634;2023-07-30T15:45:19;19.80;99.90
21481;DHT22;10902;48.158;8.634;2023-07-30T15:48:04;21.40;99.90
21481;DHT22;10902;48.158;8.634;2023-07-30T15:50:50;20.40;99.90
21481;DHT22;10902;48.158;8.634;2023-07-30T15:53:36;21.10;99.90
21481;DHT22;10902;48.158;8.634;2023-07-30T15:56:22;21.40;99.90
21481;DHT22;10902;48.158;8.634;2023-07-30T15:59:07;20.90;99.90
21481;DHT22;10902;48.158;8.634;2023-07-30T16:01:54;21.80;99.90
21481;DHT22;10902;48.158;8.634;2023-07-30T16:04:41;21.90;99.90
21481;DHT22;10902;48.158;8.634;2023-07-30T16:07:26;21.70;99.90
21481;DHT22;10902;48.158;8.634;2023-07-30T16:10:12;22.10;99.90
21481;DHT22;10902;48.158;8.634;2023-07-30T16:12:57;20.90;99.90
21481;DHT22;10902;48.158;8.634;2023-07-30T16:15:43;20.40;99.90
21481;DHT22;10902;48.158;8.634;2023-07-30T16:18:29;21.80;99.90
21481;DHT22;10902;48.158;8.634;2023-07-30T16:21:15;22.20;99.90
21481;DHT22;10902;48.158;8.634;2023-07-30T16:24:01;22.80;99.90
21481;DHT22;10902;48.158;8.634;2023-07-30T16:26:47;21.10;99.90
21481;DHT22;10902;48.158;8.634;2023-07-30T16:29:33;20.90;99.90
21481;DHT22;10902;48.158;8.634;2023-07-30T16:32:18;20.80;99.90
21481;DHT22;10902;48.158;8.634;2023-07-30T16:35:04;20.50;99.90
21481;DHT22;10902;48.158;8.634;2023-07-30T16:37:51;20.60;99.90
21481;DHT22;10902;48.158;8.634;2023-07-30T16:40:36;22.30;99.90
21481;DHT22;10902;48.158;8.634;2023-07-30T16:43:22;21.50;99.90
21481;DHT22;10902;48.158;8.634;2023-07-30T16:46:08;22.70;99.90
21481;DHT22;10902;48.158;8.634;2023-07-30T16:48:55;23.80;99.90
21481;DHT22;10902;48.158;8.634;2023-07-30T16:51:40;23.30;99.90
21481;DHT22;10902;48.158;8.634;2023-07-30T16:54:26;23.30;99.90
21481;DHT22;10902;48.158;8.634;2023-07-30T16:57:11;22.70;99.90
21481;DHT22;10902;48.158;8.634;2023-07-30T17:00:00;23.00;99.90
21481;DHT22;10902;48.158;8.634;2023-07-30T17:02:46;22.90;99.90
21481;DHT22;10902;48.158;8.634;2023-07-30T17:05:32;22.20;99.90
21481;DHT22;10902;48.158;8.634;2023-07-30T17:08:17;21.70;99.90
21481;DHT22;10902;48.158;8.634;2023-07-30T17:11:07;21.30;99.90
21481;DHT22;10902;48.158;8.634;2023-07-30T17:13:53;21.40;99.90
21481;DHT22;10902;48.158;8.634;2023-07-30T17:16:41;22.50;99.90
21481;DHT22;10902;48.158;8.634;2023-07-30T17:19:28;22.70;99.90
21481;DHT22;10902;48.158;8.634;2023-07-30T17:22:15;22.30;99.90
21481;DHT22;10902;48.158;8.634;2023-07-30T17:25:00;22.50;99.90
21481;DHT22;10902;48.158;8.634;2023-07-30T17:27:46;22.10;99.90
21481;DHT22;10902;48.158;8.634;2023-07-30T17:30:32;21.80;99.90